Strona główna
METAR-TAF:

METAR-TAF

Lotnisko :

Port lotniczy Kluż-Napoka

Kluż-Napoka, Rumunia

Szerokość geograficzna: 46-47N, Długość geograficzna: 023-34E, wysokość: 315 m

Aktualna obserwacja pogody

Raport powstał 19 minut temu, godzina 00:30 UTC
Wiatr 1 kt od wschód
Temperatura 6°C
Wilgotność 81%
Ciśnienie 1016 hPa
Widzialność 10 km lub więcej
Brak chmur poniżej 1500 m i brak chmur cumulonimbus

METAR: LRCL 130030Z 10001KT CAVOK 06/03 Q1016

czas: 03:49 (00:49 UTC)

Prognoza

Raport powstał 1 godzina i 49 minut temu, godzina 23:00 UTC
Prognoza ważna od 13 godzina 00 UTC do 13 godzina 09 UTC
Wiatr 4 kt z kierunków zmiennych
Widzialność 10 km lub więcej
Brak chmur poniżej 1500 m i brak chmur cumulonimbus
Prawdopodobieństwo 40% :
Przejściowo
od 13 godzina 01 UTC do 13 godzina 05 UTC
Widzialność: 5000 m
zamglenie

TAF: LRCL 122300Z 1300/1309 VRB04KT CAVOK PROB40 TEMPO 1301/1305 5000 BR

Obserwacja i prognoza pogody dla ponad 4000 lotnisk (raport METAR i TAF).

Dostępne stacje oznaczono żółtymi i czerwonymi punktami na mapie.

Najedź kursorem aby zobaczyć nazwę stacji.

Kliknij aby zobaczyć obserwacje i prognozy pogody.

Aby zmienić mapę: kliknij na zielony przycisk z czarnym krzyżykiem, aby powiększyć; na zielony przycisk z myślnikiem, aby pomniejszyć; na zielone strzałki, aby przejść do map sąsiednich.


METAR-TAF: